sensor_id;sensor_type;location;lat;lon;timestamp;P1;durP1;ratioP1;P2;durP2;ratioP2
8881;SDS011;4477;48.736;9.176;2023-07-29T00:00:41;4.97;;;4.27;;
8881;SDS011;4477;48.736;9.176;2023-07-29T00:03:09;5.60;;;5.00;;
8881;SDS011;4477;48.736;9.176;2023-07-29T00:05:36;6.00;;;4.60;;
8881;SDS011;4477;48.736;9.176;2023-07-29T00:08:03;6.07;;;5.47;;
8881;SDS011;4477;48.736;9.176;2023-07-29T00:10:32;8.83;;;5.67;;
8881;SDS011;4477;48.736;9.176;2023-07-29T00:12:59;7.37;;;5.60;;
8881;SDS011;4477;48.736;9.176;2023-07-29T00:15:27;6.70;;;5.43;;
8881;SDS011;4477;48.736;9.176;2023-07-29T00:17:54;8.30;;;5.93;;
8881;SDS011;4477;48.736;9.176;2023-07-29T00:20:21;8.60;;;6.43;;
8881;SDS011;4477;48.736;9.176;2023-07-29T00:22:48;7.27;;;5.40;;
8881;SDS011;4477;48.736;9.176;2023-07-29T00:25:18;7.50;;;5.17;;
8881;SDS011;4477;48.736;9.176;2023-07-29T00:27:46;7.33;;;6.10;;
8881;SDS011;4477;48.736;9.176;2023-07-29T00:30:13;7.23;;;5.43;;
8881;SDS011;4477;48.736;9.176;2023-07-29T00:32:40;6.10;;;5.50;;
8881;SDS011;4477;48.736;9.176;2023-07-29T00:35:08;6.13;;;5.43;;
8881;SDS011;4477;48.736;9.176;2023-07-29T00:37:35;5.63;;;4.90;;
8881;SDS011;4477;48.736;9.176;2023-07-29T00:40:03;10.57;;;5.97;;
8881;SDS011;4477;48.736;9.176;2023-07-29T00:42:31;7.83;;;5.67;;
8881;SDS011;4477;48.736;9.176;2023-07-29T00:44:59;11.00;;;6.70;;
8881;SDS011;4477;48.736;9.176;2023-07-29T00:47:26;11.53;;;6.93;;
8881;SDS011;4477;48.736;9.176;2023-07-29T00:49:53;6.80;;;6.10;;
8881;SDS011;4477;48.736;9.176;2023-07-29T00:52:20;9.53;;;7.27;;
8881;SDS011;4477;48.736;9.176;2023-07-29T00:54:48;10.00;;;5.33;;
8881;SDS011;4477;48.736;9.176;2023-07-29T00:57:15;7.10;;;6.30;;
8881;SDS011;4477;48.736;9.176;2023-07-29T00:59:43;6.67;;;5.10;;
8881;SDS011;4477;48.736;9.176;2023-07-29T01:02:11;6.37;;;4.47;;
8881;SDS011;4477;48.736;9.176;2023-07-29T01:04:39;3.93;;;3.40;;
8881;SDS011;4477;48.736;9.176;2023-07-29T01:07:07;5.50;;;4.30;;
8881;SDS011;4477;48.736;9.176;2023-07-29T01:09:41;4.17;;;3.77;;
8881;SDS011;4477;48.736;9.176;2023-07-29T01:12:12;4.30;;;3.90;;
8881;SDS011;4477;48.736;9.176;2023-07-29T01:14:45;4.37;;;3.97;;
8881;SDS011;4477;48.736;9.176;2023-07-29T01:17:15;6.03;;;3.67;;
8881;SDS011;4477;48.736;9.176;2023-07-29T01:19:48;4.50;;;3.70;;
8881;SDS011;4477;48.736;9.176;2023-07-29T01:22:20;4.30;;;3.90;;
8881;SDS011;4477;48.736;9.176;2023-07-29T01:24:49;4.63;;;3.73;;
8881;SDS011;4477;48.736;9.176;2023-07-29T01:27:16;4.27;;;2.83;;
8881;SDS011;4477;48.736;9.176;2023-07-29T01:29:43;4.70;;;3.33;;
8881;SDS011;4477;48.736;9.176;2023-07-29T01:32:13;3.70;;;3.40;;
8881;SDS011;4477;48.736;9.176;2023-07-29T01:34:43;4.33;;;3.30;;
8881;SDS011;4477;48.736;9.176;2023-07-29T01:37:12;4.23;;;3.70;;
8881;SDS011;4477;48.736;9.176;2023-07-29T01:39:41;3.53;;;3.23;;
8881;SDS011;4477;48.736;9.176;2023-07-29T01:42:11;3.93;;;3.50;;
8881;SDS011;4477;48.736;9.176;2023-07-29T01:44:39;3.87;;;3.30;;
8881;SDS011;4477;48.736;9.176;2023-07-29T01:47:07;3.80;;;3.10;;
8881;SDS011;4477;48.736;9.176;2023-07-29T01:49:34;6.13;;;3.30;;
8881;SDS011;4477;48.736;9.176;2023-07-29T01:52:02;3.77;;;3.07;;
8881;SDS011;4477;48.736;9.176;2023-07-29T01:54:29;3.43;;;2.97;;
8881;SDS011;4477;48.736;9.176;2023-07-29T01:56:56;3.30;;;3.00;;
8881;SDS011;4477;48.736;9.176;2023-07-29T01:59:24;3.30;;;3.00;;
8881;SDS011;4477;48.736;9.176;2023-07-29T02:01:52;3.97;;;3.20;;
8881;SDS011;4477;48.736;9.176;2023-07-29T02:04:19;3.57;;;2.87;;
8881;SDS011;4477;48.736;9.176;2023-07-29T02:06:46;4.33;;;3.20;;
8881;SDS011;4477;48.736;9.176;2023-07-29T02:09:13;3.53;;;3.10;;
8881;SDS011;4477;48.736;9.176;2023-07-29T02:11:40;3.40;;;2.83;;
8881;SDS011;4477;48.736;9.176;2023-07-29T02:14:07;3.37;;;3.07;;
8881;SDS011;4477;48.736;9.176;2023-07-29T02:16:36;4.93;;;3.40;;
8881;SDS011;4477;48.736;9.176;2023-07-29T02:19:04;4.77;;;3.10;;
8881;SDS011;4477;48.736;9.176;2023-07-29T02:21:31;4.37;;;3.83;;
8881;SDS011;4477;48.736;9.176;2023-07-29T02:23:58;4.07;;;3.67;;
8881;SDS011;4477;48.736;9.176;2023-07-29T02:26:25;6.70;;;3.90;;
8881;SDS011;4477;48.736;9.176;2023-07-29T02:28:52;4.47;;;3.63;;
8881;SDS011;4477;48.736;9.176;2023-07-29T02:31:20;4.03;;;3.63;;
8881;SDS011;4477;48.736;9.176;2023-07-29T02:33:49;4.30;;;3.80;;
8881;SDS011;4477;48.736;9.176;2023-07-29T02:36:16;3.53;;;3.23;;
8881;SDS011;4477;48.736;9.176;2023-07-29T02:38:44;4.03;;;3.70;;
8881;SDS011;4477;48.736;9.176;2023-07-29T02:41:11;4.80;;;3.77;;
8881;SDS011;4477;48.736;9.176;2023-07-29T02:43:38;4.03;;;3.67;;
8881;SDS011;4477;48.736;9.176;2023-07-29T02:46:06;3.97;;;3.63;;
8881;SDS011;4477;48.736;9.176;2023-07-29T02:48:33;4.77;;;3.30;;
8881;SDS011;4477;48.736;9.176;2023-07-29T02:51:01;5.93;;;3.50;;
8881;SDS011;4477;48.736;9.176;2023-07-29T02:53:28;3.87;;;3.40;;
8881;SDS011;4477;48.736;9.176;2023-07-29T02:55:56;5.73;;;3.70;;
8881;SDS011;4477;48.736;9.176;2023-07-29T02:58:23;5.70;;;3.30;;
8881;SDS011;4477;48.736;9.176;2023-07-29T03:00:51;3.90;;;3.10;;
8881;SDS011;4477;48.736;9.176;2023-07-29T03:03:18;3.27;;;2.97;;
8881;SDS011;4477;48.736;9.176;2023-07-29T03:05:45;3.90;;;3.10;;
8881;SDS011;4477;48.736;9.176;2023-07-29T03:08:14;3.97;;;3.30;;
8881;SDS011;4477;48.736;9.176;2023-07-29T03:10:41;4.67;;;3.50;;
8881;SDS011;4477;48.736;9.176;2023-07-29T03:13:08;4.23;;;2.93;;
8881;SDS011;4477;48.736;9.176;2023-07-29T03:15:35;3.73;;;3.00;;
8881;SDS011;4477;48.736;9.176;2023-07-29T03:18:03;4.40;;;3.00;;
8881;SDS011;4477;48.736;9.176;2023-07-29T03:20:30;4.50;;;3.23;;
8881;SDS011;4477;48.736;9.176;2023-07-29T03:22:57;3.77;;;3.37;;
8881;SDS011;4477;48.736;9.176;2023-07-29T03:25:25;3.53;;;3.00;;
8881;SDS011;4477;48.736;9.176;2023-07-29T03:27:53;3.73;;;3.23;;
8881;SDS011;4477;48.736;9.176;2023-07-29T03:30:21;2.97;;;2.77;;
8881;SDS011;4477;48.736;9.176;2023-07-29T03:32:48;5.47;;;3.13;;
8881;SDS011;4477;48.736;9.176;2023-07-29T03:35:16;4.37;;;3.10;;
8881;SDS011;4477;48.736;9.176;2023-07-29T03:37:43;4.10;;;3.20;;
8881;SDS011;4477;48.736;9.176;2023-07-29T03:40:10;4.53;;;3.40;;
8881;SDS011;4477;48.736;9.176;2023-07-29T03:42:39;4.70;;;3.10;;
8881;SDS011;4477;48.736;9.176;2023-07-29T03:45:06;2.90;;;2.70;;
8881;SDS011;4477;48.736;9.176;2023-07-29T03:47:34;3.43;;;3.10;;
8881;SDS011;4477;48.736;9.176;2023-07-29T03:50:02;3.30;;;3.00;;
8881;SDS011;4477;48.736;9.176;2023-07-29T03:52:29;3.07;;;2.77;;
8881;SDS011;4477;48.736;9.176;2023-07-29T03:54:56;3.37;;;3.03;;
8881;SDS011;4477;48.736;9.176;2023-07-29T03:57:23;3.60;;;3.00;;
8881;SDS011;4477;48.736;9.176;2023-07-29T03:59:52;6.57;;;2.93;;
8881;SDS011;4477;48.736;9.176;2023-07-29T04:02:19;3.97;;;3.13;;
8881;SDS011;4477;48.736;9.176;2023-07-29T04:04:46;3.23;;;2.93;;
8881;SDS011;4477;48.736;9.176;2023-07-29T04:07:13;3.93;;;3.13;;
8881;SDS011;4477;48.736;9.176;2023-07-29T04:09:41;5.00;;;2.80;;
8881;SDS011;4477;48.736;9.176;2023-07-29T04:12:08;3.27;;;2.73;;
8881;SDS011;4477;48.736;9.176;2023-07-29T04:14:36;5.53;;;3.33;;
8881;SDS011;4477;48.736;9.176;2023-07-29T04:17:04;5.90;;;3.30;;
8881;SDS011;4477;48.736;9.176;2023-07-29T04:19:32;4.87;;;3.47;;
8881;SDS011;4477;48.736;9.176;2023-07-29T04:21:59;6.13;;;2.93;;
8881;SDS011;4477;48.736;9.176;2023-07-29T04:24:26;3.20;;;3.00;;
8881;SDS011;4477;48.736;9.176;2023-07-29T04:26:53;3.37;;;2.97;;
8881;SDS011;4477;48.736;9.176;2023-07-29T04:29:20;4.67;;;3.20;;
8881;SDS011;4477;48.736;9.176;2023-07-29T04:31:48;5.00;;;3.37;;
8881;SDS011;4477;48.736;9.176;2023-07-29T04:34:17;3.67;;;3.20;;
8881;SDS011;4477;48.736;9.176;2023-07-29T04:36:44;4.03;;;3.53;;
8881;SDS011;4477;48.736;9.176;2023-07-29T04:39:11;4.87;;;3.60;;
8881;SDS011;4477;48.736;9.176;2023-07-29T04:41:38;3.57;;;3.27;;
8881;SDS011;4477;48.736;9.176;2023-07-29T04:44:05;7.43;;;3.60;;
8881;SDS011;4477;48.736;9.176;2023-07-29T04:46:32;6.23;;;3.37;;
8881;SDS011;4477;48.736;9.176;2023-07-29T04:49:00;8.13;;;3.53;;
8881;SDS011;4477;48.736;9.176;2023-07-29T04:51:28;11.33;;;4.17;;
8881;SDS011;4477;48.736;9.176;2023-07-29T04:53:56;5.00;;;3.53;;
8881;SDS011;4477;48.736;9.176;2023-07-29T04:56:23;6.80;;;4.13;;
8881;SDS011;4477;48.736;9.176;2023-07-29T04:58:51;7.33;;;3.90;;
8881;SDS011;4477;48.736;9.176;2023-07-29T05:01:19;7.37;;;4.50;;
8881;SDS011;4477;48.736;9.176;2023-07-29T05:03:46;5.70;;;4.43;;
8881;SDS011;4477;48.736;9.176;2023-07-29T05:06:13;5.00;;;3.30;;
8881;SDS011;4477;48.736;9.176;2023-07-29T05:08:41;4.33;;;3.80;;
8881;SDS011;4477;48.736;9.176;2023-07-29T05:11:08;7.20;;;4.50;;
8881;SDS011;4477;48.736;9.176;2023-07-29T05:13:36;6.40;;;4.53;;
8881;SDS011;4477;48.736;9.176;2023-07-29T05:16:04;7.40;;;4.17;;
8881;SDS011;4477;48.736;9.176;2023-07-29T05:18:31;5.67;;;4.73;;
8881;SDS011;4477;48.736;9.176;2023-07-29T05:20:58;5.97;;;4.30;;
8881;SDS011;4477;48.736;9.176;2023-07-29T05:23:25;6.17;;;4.13;;
8881;SDS011;4477;48.736;9.176;2023-07-29T05:25:54;7.77;;;4.30;;
8881;SDS011;4477;48.736;9.176;2023-07-29T05:28:21;5.13;;;4.10;;
8881;SDS011;4477;48.736;9.176;2023-07-29T05:30:48;7.40;;;4.30;;
8881;SDS011;4477;48.736;9.176;2023-07-29T05:33:15;4.40;;;4.00;;
8881;SDS011;4477;48.736;9.176;2023-07-29T05:35:42;4.20;;;3.63;;
8881;SDS011;4477;48.736;9.176;2023-07-29T05:38:11;4.67;;;4.17;;
8881;SDS011;4477;48.736;9.176;2023-07-29T05:40:39;8.40;;;4.53;;
8881;SDS011;4477;48.736;9.176;2023-07-29T05:43:07;4.40;;;4.00;;
8881;SDS011;4477;48.736;9.176;2023-07-29T05:45:35;7.07;;;4.57;;
8881;SDS011;4477;48.736;9.176;2023-07-29T05:48:02;4.80;;;4.30;;
8881;SDS011;4477;48.736;9.176;2023-07-29T05:50:29;4.83;;;3.90;;
8881;SDS011;4477;48.736;9.176;2023-07-29T05:52:56;6.73;;;3.77;;
8881;SDS011;4477;48.736;9.176;2023-07-29T05:55:23;5.00;;;3.80;;
8881;SDS011;4477;48.736;9.176;2023-07-29T05:57:50;5.30;;;3.30;;
8881;SDS011;4477;48.736;9.176;2023-07-29T06:00:19;6.50;;;3.50;;
8881;SDS011;4477;48.736;9.176;2023-07-29T06:02:46;3.93;;;3.43;;
8881;SDS011;4477;48.736;9.176;2023-07-29T06:05:13;5.53;;;3.20;;
8881;SDS011;4477;48.736;9.176;2023-07-29T06:07:40;4.60;;;2.90;;
8881;SDS011;4477;48.736;9.176;2023-07-29T06:10:09;4.83;;;2.70;;
8881;SDS011;4477;48.736;9.176;2023-07-29T06:12:36;4.50;;;3.20;;
8881;SDS011;4477;48.736;9.176;2023-07-29T06:15:04;4.20;;;2.63;;
8881;SDS011;4477;48.736;9.176;2023-07-29T06:17:33;3.00;;;2.50;;
8881;SDS011;4477;48.736;9.176;2023-07-29T06:20:00;2.43;;;2.23;;
8881;SDS011;4477;48.736;9.176;2023-07-29T06:22:27;5.07;;;2.63;;
8881;SDS011;4477;48.736;9.176;2023-07-29T06:24:54;3.67;;;2.10;;
8881;SDS011;4477;48.736;9.176;2023-07-29T06:27:21;3.03;;;1.63;;
8881;SDS011;4477;48.736;9.176;2023-07-29T06:29:49;2.97;;;2.00;;
8881;SDS011;4477;48.736;9.176;2023-07-29T06:32:16;2.60;;;1.80;;
8881;SDS011;4477;48.736;9.176;2023-07-29T06:34:44;2.57;;;1.90;;
8881;SDS011;4477;48.736;9.176;2023-07-29T06:37:11;2.53;;;1.87;;
8881;SDS011;4477;48.736;9.176;2023-07-29T06:39:38;3.00;;;1.80;;
8881;SDS011;4477;48.736;9.176;2023-07-29T06:42:05;3.13;;;1.80;;
8881;SDS011;4477;48.736;9.176;2023-07-29T06:44:32;2.23;;;2.00;;
8881;SDS011;4477;48.736;9.176;2023-07-29T06:46:59;3.03;;;2.07;;
8881;SDS011;4477;48.736;9.176;2023-07-29T06:49:26;2.27;;;1.90;;
8881;SDS011;4477;48.736;9.176;2023-07-29T06:51:54;3.07;;;2.10;;
8881;SDS011;4477;48.736;9.176;2023-07-29T06:54:23;3.17;;;2.60;;
8881;SDS011;4477;48.736;9.176;2023-07-29T06:56:51;3.17;;;2.17;;
8881;SDS011;4477;48.736;9.176;2023-07-29T06:59:18;2.63;;;2.43;;
8881;SDS011;4477;48.736;9.176;2023-07-29T07:01:45;4.73;;;2.47;;
8881;SDS011;4477;48.736;9.176;2023-07-29T07:04:12;4.10;;;2.70;;
8881;SDS011;4477;48.736;9.176;2023-07-29T07:06:38;6.53;;;3.23;;
8881;SDS011;4477;48.736;9.176;2023-07-29T07:09:07;5.00;;;3.10;;
8881;SDS011;4477;48.736;9.176;2023-07-29T07:11:33;5.23;;;2.70;;
8881;SDS011;4477;48.736;9.176;2023-07-29T07:14:00;3.40;;;3.10;;
8881;SDS011;4477;48.736;9.176;2023-07-29T07:16:27;3.67;;;2.83;;
8881;SDS011;4477;48.736;9.176;2023-07-29T07:18:55;4.57;;;2.80;;
8881;SDS011;4477;48.736;9.176;2023-07-29T07:21:22;4.83;;;2.90;;
8881;SDS011;4477;48.736;9.176;2023-07-29T07:23:50;7.03;;;3.47;;
8881;SDS011;4477;48.736;9.176;2023-07-29T07:26:18;3.90;;;3.50;;
8881;SDS011;4477;48.736;9.176;2023-07-29T07:28:45;3.77;;;3.30;;
8881;SDS011;4477;48.736;9.176;2023-07-29T07:31:12;7.13;;;3.80;;
8881;SDS011;4477;48.736;9.176;2023-07-29T07:33:39;5.30;;;3.27;;
8881;SDS011;4477;48.736;9.176;2023-07-29T07:36:06;6.00;;;3.63;;
8881;SDS011;4477;48.736;9.176;2023-07-29T07:38:32;3.60;;;3.30;;
8881;SDS011;4477;48.736;9.176;2023-07-29T07:40:59;4.03;;;3.30;;
8881;SDS011;4477;48.736;9.176;2023-07-29T07:43:27;3.80;;;3.10;;
8881;SDS011;4477;48.736;9.176;2023-07-29T07:45:57;3.10;;;2.80;;
8881;SDS011;4477;48.736;9.176;2023-07-29T07:48:24;3.47;;;2.30;;
8881;SDS011;4477;48.736;9.176;2023-07-29T07:50:51;3.83;;;2.40;;
8881;SDS011;4477;48.736;9.176;2023-07-29T07:53:18;4.60;;;2.73;;
8881;SDS011;4477;48.736;9.176;2023-07-29T07:55:46;3.07;;;2.43;;
8881;SDS011;4477;48.736;9.176;2023-07-29T07:58:12;2.73;;;2.03;;
8881;SDS011;4477;48.736;9.176;2023-07-29T08:00:41;2.50;;;2.00;;
8881;SDS011;4477;48.736;9.176;2023-07-29T08:03:08;2.37;;;2.00;;
8881;SDS011;4477;48.736;9.176;2023-07-29T08:05:34;3.70;;;2.30;;
8881;SDS011;4477;48.736;9.176;2023-07-29T08:08:01;2.17;;;1.83;;
8881;SDS011;4477;48.736;9.176;2023-07-29T08:10:28;2.73;;;2.13;;
8881;SDS011;4477;48.736;9.176;2023-07-29T08:12:55;3.47;;;1.70;;
8881;SDS011;4477;48.736;9.176;2023-07-29T08:15:22;3.47;;;1.83;;
8881;SDS011;4477;48.736;9.176;2023-07-29T08:17:50;1.40;;;1.30;;
8881;SDS011;4477;48.736;9.176;2023-07-29T08:20:17;3.63;;;1.60;;
8881;SDS011;4477;48.736;9.176;2023-07-29T08:22:44;4.60;;;1.67;;
8881;SDS011;4477;48.736;9.176;2023-07-29T08:25:11;2.23;;;1.60;;
8881;SDS011;4477;48.736;9.176;2023-07-29T08:27:37;2.67;;;1.63;;
8881;SDS011;4477;48.736;9.176;2023-07-29T08:30:05;2.37;;;1.70;;
8881;SDS011;4477;48.736;9.176;2023-07-29T08:32:33;3.13;;;1.70;;
8881;SDS011;4477;48.736;9.176;2023-07-29T08:35:01;3.07;;;1.27;;
8881;SDS011;4477;48.736;9.176;2023-07-29T08:37:28;2.47;;;1.67;;
8881;SDS011;4477;48.736;9.176;2023-07-29T08:39:56;1.97;;;1.67;;
8881;SDS011;4477;48.736;9.176;2023-07-29T08:42:23;1.90;;;1.70;;
8881;SDS011;4477;48.736;9.176;2023-07-29T08:44:54;2.50;;;1.60;;
8881;SDS011;4477;48.736;9.176;2023-07-29T08:47:22;1.90;;;1.70;;
8881;SDS011;4477;48.736;9.176;2023-07-29T08:49:49;2.50;;;1.77;;
8881;SDS011;4477;48.736;9.176;2023-07-29T08:52:19;1.77;;;1.67;;
8881;SDS011;4477;48.736;9.176;2023-07-29T08:54:46;1.57;;;1.40;;
8881;SDS011;4477;48.736;9.176;2023-07-29T08:57:14;2.30;;;1.87;;
8881;SDS011;4477;48.736;9.176;2023-07-29T08:59:41;1.70;;;1.43;;
8881;SDS011;4477;48.736;9.176;2023-07-29T09:02:08;1.80;;;1.60;;
8881;SDS011;4477;48.736;9.176;2023-07-29T09:04:35;1.63;;;1.50;;
8881;SDS011;4477;48.736;9.176;2023-07-29T09:07:02;3.20;;;1.80;;
8881;SDS011;4477;48.736;9.176;2023-07-29T09:09:32;2.97;;;1.77;;
8881;SDS011;4477;48.736;9.176;2023-07-29T09:11:59;2.27;;;1.70;;
8881;SDS011;4477;48.736;9.176;2023-07-29T09:14:26;2.97;;;1.80;;
8881;SDS011;4477;48.736;9.176;2023-07-29T09:16:53;2.65;;;1.73;;
8881;SDS011;4477;48.736;9.176;2023-07-29T09:19:20;2.00;;;1.73;;
8881;SDS011;4477;48.736;9.176;2023-07-29T09:21:50;1.38;;;1.20;;
8881;SDS011;4477;48.736;9.176;2023-07-29T09:24:17;2.53;;;1.50;;
8881;SDS011;4477;48.736;9.176;2023-07-29T09:26:49;2.38;;;1.55;;
8881;SDS011;4477;48.736;9.176;2023-07-29T09:29:21;1.83;;;1.33;;
8881;SDS011;4477;48.736;9.176;2023-07-29T09:31:49;1.70;;;1.60;;
8881;SDS011;4477;48.736;9.176;2023-07-29T09:34:16;2.50;;;1.23;;
8881;SDS011;4477;48.736;9.176;2023-07-29T09:36:43;1.30;;;1.20;;
8881;SDS011;4477;48.736;9.176;2023-07-29T09:39:10;2.08;;;1.55;;
8881;SDS011;4477;48.736;9.176;2023-07-29T09:41:38;2.55;;;1.45;;
8881;SDS011;4477;48.736;9.176;2023-07-29T09:44:06;1.90;;;1.33;;
8881;SDS011;4477;48.736;9.176;2023-07-29T09:46:33;1.60;;;1.50;;
8881;SDS011;4477;48.736;9.176;2023-07-29T09:49:01;1.60;;;1.50;;
8881;SDS011;4477;48.736;9.176;2023-07-29T09:51:29;2.88;;;1.70;;
8881;SDS011;4477;48.736;9.176;2023-07-29T09:53:56;2.65;;;1.65;;
8881;SDS011;4477;48.736;9.176;2023-07-29T09:56:24;2.27;;;1.50;;
8881;SDS011;4477;48.736;9.176;2023-07-29T09:58:52;1.65;;;1.30;;
8881;SDS011;4477;48.736;9.176;2023-07-29T10:01:23;1.65;;;1.42;;
8881;SDS011;4477;48.736;9.176;2023-07-29T10:03:50;2.65;;;1.67;;
8881;SDS011;4477;48.736;9.176;2023-07-29T10:06:17;2.28;;;1.30;;
8881;SDS011;4477;48.736;9.176;2023-07-29T10:08:45;2.53;;;1.30;;
8881;SDS011;4477;48.736;9.176;2023-07-29T10:11:13;1.52;;;1.30;;
8881;SDS011;4477;48.736;9.176;2023-07-29T10:13:40;1.80;;;1.63;;
8881;SDS011;4477;48.736;9.176;2023-07-29T10:16:07;4.05;;;1.55;;
8881;SDS011;4477;48.736;9.176;2023-07-29T10:18:36;3.80;;;1.60;;
8881;SDS011;4477;48.736;9.176;2023-07-29T10:21:04;2.58;;;1.77;;
8881;SDS011;4477;48.736;9.176;2023-07-29T10:23:32;1.80;;;1.50;;
8881;SDS011;4477;48.736;9.176;2023-07-29T10:26:04;4.03;;;1.63;;
8881;SDS011;4477;48.736;9.176;2023-07-29T10:28:32;2.45;;;1.42;;
8881;SDS011;4477;48.736;9.176;2023-07-29T10:30:59;1.83;;;1.60;;
8881;SDS011;4477;48.736;9.176;2023-07-29T10:33:28;1.42;;;1.33;;
8881;SDS011;4477;48.736;9.176;2023-07-29T10:35:58;2.47;;;1.52;;
8881;SDS011;4477;48.736;9.176;2023-07-29T10:38:26;5.00;;;1.50;;
8881;SDS011;4477;48.736;9.176;2023-07-29T10:40:54;2.75;;;1.60;;
8881;SDS011;4477;48.736;9.176;2023-07-29T10:43:24;2.08;;;1.60;;
8881;SDS011;4477;48.736;9.176;2023-07-29T10:45:52;1.50;;;1.40;;
8881;SDS011;4477;48.736;9.176;2023-07-29T10:51:23;1.77;;;1.40;;
8881;SDS011;4477;48.736;9.176;2023-07-29T10:53:56;1.92;;;1.50;;
8881;SDS011;4477;48.736;9.176;2023-07-29T10:56:26;1.65;;;1.40;;
8881;SDS011;4477;48.736;9.176;2023-07-29T10:58:55;1.80;;;1.58;;
8881;SDS011;4477;48.736;9.176;2023-07-29T11:01:26;2.40;;;1.45;;
8881;SDS011;4477;48.736;9.176;2023-07-29T11:04:00;1.50;;;1.40;;
8881;SDS011;4477;48.736;9.176;2023-07-29T11:09:51;1.55;;;1.45;;
8881;SDS011;4477;48.736;9.176;2023-07-29T11:15:20;2.40;;;1.38;;
8881;SDS011;4477;48.736;9.176;2023-07-29T11:17:48;1.70;;;1.60;;
8881;SDS011;4477;48.736;9.176;2023-07-29T11:20:17;1.90;;;1.30;;
8881;SDS011;4477;48.736;9.176;2023-07-29T11:22:45;2.50;;;1.63;;
8881;SDS011;4477;48.736;9.176;2023-07-29T11:25:14;1.40;;;1.30;;
8881;SDS011;4477;48.736;9.176;2023-07-29T11:27:42;1.83;;;1.33;;
8881;SDS011;4477;48.736;9.176;2023-07-29T11:30:09;4.82;;;1.50;;
8881;SDS011;4477;48.736;9.176;2023-07-29T11:32:38;2.33;;;1.50;;
8881;SDS011;4477;48.736;9.176;2023-07-29T11:35:06;1.50;;;1.40;;
8881;SDS011;4477;48.736;9.176;2023-07-29T11:37:35;1.40;;;1.30;;
8881;SDS011;4477;48.736;9.176;2023-07-29T11:40:02;1.52;;;1.35;;
8881;SDS011;4477;48.736;9.176;2023-07-29T11:42:32;2.17;;;1.55;;
8881;SDS011;4477;48.736;9.176;2023-07-29T11:45:00;3.35;;;1.50;;
8881;SDS011;4477;48.736;9.176;2023-07-29T11:47:28;2.85;;;1.50;;
8881;SDS011;4477;48.736;9.176;2023-07-29T11:49:57;1.50;;;1.40;;
8881;SDS011;4477;48.736;9.176;2023-07-29T11:52:25;2.33;;;1.20;;
8881;SDS011;4477;48.736;9.176;2023-07-29T11:54:53;1.60;;;1.50;;
8881;SDS011;4477;48.736;9.176;2023-07-29T11:57:20;1.60;;;1.50;;
8881;SDS011;4477;48.736;9.176;2023-07-29T11:59:48;2.13;;;1.90;;
8881;SDS011;4477;48.736;9.176;2023-07-29T12:02:16;2.03;;;1.70;;
8881;SDS011;4477;48.736;9.176;2023-07-29T12:04:46;1.60;;;1.50;;
8881;SDS011;4477;48.736;9.176;2023-07-29T12:07:14;1.75;;;1.63;;
8881;SDS011;4477;48.736;9.176;2023-07-29T12:09:42;1.80;;;1.70;;
8881;SDS011;4477;48.736;9.176;2023-07-29T12:12:10;1.70;;;1.50;;
8881;SDS011;4477;48.736;9.176;2023-07-29T12:14:37;2.05;;;1.70;;
8881;SDS011;4477;48.736;9.176;2023-07-29T12:17:06;1.70;;;1.60;;
8881;SDS011;4477;48.736;9.176;2023-07-29T12:19:33;3.50;;;1.70;;
8881;SDS011;4477;48.736;9.176;2023-07-29T12:22:01;2.00;;;1.73;;
8881;SDS011;4477;48.736;9.176;2023-07-29T12:24:29;1.50;;;1.40;;
8881;SDS011;4477;48.736;9.176;2023-07-29T12:26:56;2.22;;;1.77;;
8881;SDS011;4477;48.736;9.176;2023-07-29T12:29:23;2.08;;;1.83;;
8881;SDS011;4477;48.736;9.176;2023-07-29T12:31:56;2.55;;;1.50;;
8881;SDS011;4477;48.736;9.176;2023-07-29T12:34:27;1.63;;;1.52;;
8881;SDS011;4477;48.736;9.176;2023-07-29T12:36:55;2.45;;;1.63;;
8881;SDS011;4477;48.736;9.176;2023-07-29T12:39:24;3.38;;;1.50;;
8881;SDS011;4477;48.736;9.176;2023-07-29T12:41:52;1.60;;;1.50;;
8881;SDS011;4477;48.736;9.176;2023-07-29T12:44:20;2.03;;;1.83;;
8881;SDS011;4477;48.736;9.176;2023-07-29T12:46:48;1.80;;;1.70;;
8881;SDS011;4477;48.736;9.176;2023-07-29T12:49:15;2.10;;;1.90;;
8881;SDS011;4477;48.736;9.176;2023-07-29T12:51:44;2.22;;;1.50;;
8881;SDS011;4477;48.736;9.176;2023-07-29T12:54:11;1.70;;;1.60;;
8881;SDS011;4477;48.736;9.176;2023-07-29T12:56:38;2.75;;;1.60;;
8881;SDS011;4477;48.736;9.176;2023-07-29T12:59:05;2.75;;;1.77;;
8881;SDS011;4477;48.736;9.176;2023-07-29T13:01:32;3.40;;;1.77;;
8881;SDS011;4477;48.736;9.176;2023-07-29T13:03:58;2.55;;;1.80;;
8881;SDS011;4477;48.736;9.176;2023-07-29T13:06:25;2.55;;;1.70;;
8881;SDS011;4477;48.736;9.176;2023-07-29T13:08:53;2.45;;;1.58;;
8881;SDS011;4477;48.736;9.176;2023-07-29T13:11:20;2.72;;;1.75;;
8881;SDS011;4477;48.736;9.176;2023-07-29T13:13:47;1.85;;;1.60;;
8881;SDS011;4477;48.736;9.176;2023-07-29T13:16:14;1.65;;;1.55;;
8881;SDS011;4477;48.736;9.176;2023-07-29T13:18:40;1.50;;;1.40;;
8881;SDS011;4477;48.736;9.176;2023-07-29T13:21:09;1.60;;;1.40;;
8881;SDS011;4477;48.736;9.176;2023-07-29T13:23:36;1.50;;;1.40;;
8881;SDS011;4477;48.736;9.176;2023-07-29T13:26:04;1.70;;;1.60;;
8881;SDS011;4477;48.736;9.176;2023-07-29T13:28:31;2.28;;;1.60;;
8881;SDS011;4477;48.736;9.176;2023-07-29T13:30:58;2.85;;;1.50;;
8881;SDS011;4477;48.736;9.176;2023-07-29T13:33:25;2.10;;;1.90;;
8881;SDS011;4477;48.736;9.176;2023-07-29T13:35:52;3.10;;;2.00;;
8881;SDS011;4477;48.736;9.176;2023-07-29T13:38:19;1.85;;;1.73;;
8881;SDS011;4477;48.736;9.176;2023-07-29T13:40:46;1.90;;;1.80;;
8881;SDS011;4477;48.736;9.176;2023-07-29T13:43:17;2.20;;;1.52;;
8881;SDS011;4477;48.736;9.176;2023-07-29T13:45:44;1.67;;;1.35;;
8881;SDS011;4477;48.736;9.176;2023-07-29T13:48:13;1.77;;;1.67;;
8881;SDS011;4477;48.736;9.176;2023-07-29T13:50:40;1.45;;;1.30;;
8881;SDS011;4477;48.736;9.176;2023-07-29T13:53:08;2.20;;;1.70;;
8881;SDS011;4477;48.736;9.176;2023-07-29T13:55:35;2.30;;;1.73;;
8881;SDS011;4477;48.736;9.176;2023-07-29T13:58:02;2.83;;;1.60;;
8881;SDS011;4477;48.736;9.176;2023-07-29T14:00:30;3.25;;;1.90;;
8881;SDS011;4477;48.736;9.176;2023-07-29T14:02:57;1.88;;;1.40;;
8881;SDS011;4477;48.736;9.176;2023-07-29T14:05:24;2.65;;;1.70;;
8881;SDS011;4477;48.736;9.176;2023-07-29T14:07:50;2.35;;;1.83;;
8881;SDS011;4477;48.736;9.176;2023-07-29T14:10:17;1.95;;;1.67;;
8881;SDS011;4477;48.736;9.176;2023-07-29T14:12:44;2.05;;;1.85;;
8881;SDS011;4477;48.736;9.176;2023-07-29T14:15:11;1.85;;;1.60;;
8881;SDS011;4477;48.736;9.176;2023-07-29T14:17:39;2.13;;;1.92;;
8881;SDS011;4477;48.736;9.176;2023-07-29T14:20:06;2.17;;;2.05;;
8881;SDS011;4477;48.736;9.176;2023-07-29T14:22:35;2.20;;;1.88;;
8881;SDS011;4477;48.736;9.176;2023-07-29T14:25:02;1.85;;;1.75;;
8881;SDS011;4477;48.736;9.176;2023-07-29T14:27:29;1.70;;;1.60;;
8881;SDS011;4477;48.736;9.176;2023-07-29T14:29:56;2.10;;;1.70;;
8881;SDS011;4477;48.736;9.176;2023-07-29T14:32:23;3.13;;;1.90;;
8881;SDS011;4477;48.736;9.176;2023-07-29T14:34:51;1.83;;;1.70;;
8881;SDS011;4477;48.736;9.176;2023-07-29T14:37:18;1.92;;;1.83;;
8881;SDS011;4477;48.736;9.176;2023-07-29T14:39:44;2.08;;;1.88;;
8881;SDS011;4477;48.736;9.176;2023-07-29T14:42:11;1.90;;;1.80;;
8881;SDS011;4477;48.736;9.176;2023-07-29T14:44:39;1.50;;;1.40;;
8881;SDS011;4477;48.736;9.176;2023-07-29T14:47:07;1.98;;;1.88;;
8881;SDS011;4477;48.736;9.176;2023-07-29T14:49:33;2.38;;;1.73;;
8881;SDS011;4477;48.736;9.176;2023-07-29T14:52:02;2.90;;;2.05;;
8881;SDS011;4477;48.736;9.176;2023-07-29T14:54:29;2.33;;;1.90;;
8881;SDS011;4477;48.736;9.176;2023-07-29T14:56:56;2.00;;;1.80;;
8881;SDS011;4477;48.736;9.176;2023-07-29T14:59:23;3.65;;;1.77;;
8881;SDS011;4477;48.736;9.176;2023-07-29T15:01:49;2.83;;;1.77;;
8881;SDS011;4477;48.736;9.176;2023-07-29T15:04:16;2.05;;;1.85;;
8881;SDS011;4477;48.736;9.176;2023-07-29T15:06:43;3.17;;;2.00;;
8881;SDS011;4477;48.736;9.176;2023-07-29T15:09:12;2.97;;;1.67;;
8881;SDS011;4477;48.736;9.176;2023-07-29T15:11:38;2.08;;;1.88;;
8881;SDS011;4477;48.736;9.176;2023-07-29T15:14:05;1.90;;;1.80;;
8881;SDS011;4477;48.736;9.176;2023-07-29T15:16:32;2.80;;;1.95;;
8881;SDS011;4477;48.736;9.176;2023-07-29T15:19:01;2.35;;;1.88;;
8881;SDS011;4477;48.736;9.176;2023-07-29T15:21:29;1.70;;;1.60;;
8881;SDS011;4477;48.736;9.176;2023-07-29T15:23:58;2.50;;;2.00;;
8881;SDS011;4477;48.736;9.176;2023-07-29T15:26:26;2.67;;;1.85;;